Time;durP1;ratioP1;P1;durP2;ratioP2;P2;SDS_P1;SDS_P2;PMS_P1;PMS_P2;Temp;Humidity;BMP_temperature;BMP_pressure;BME280_temperature;BME280_humidity;BME280_pressure;Samples;Min_cycle;Max_cycle;Signal;HPM_P1;HPM_P2
2022/10/26 00:01:31;;;;;;;12.43;8.50;;;14.20;99.90;;;;;;5082168;28;20455;-88
2022/10/26 00:03:58;;;;;;;12.70;8.87;;;14.20;99.90;;;;;;5070718;28;20469;-88
2022/10/26 00:06:27;;;;;;;18.20;8.83;;;14.20;99.90;;;;;;5083754;28;20492;-86
2022/10/26 00:08:55;;;;;;;12.60;7.80;;;14.20;99.90;;;;;;5089363;28;20440;-88
2022/10/26 00:11:22;;;;;;;19.10;6.63;;;14.20;99.90;;;;;;5087330;28;20476;-88
2022/10/26 00:13:49;;;;;;;9.20;6.50;;;14.20;99.90;;;;;;5083485;28;20470;-88
2022/10/26 00:16:18;;;;;;;10.50;6.53;;;14.20;99.90;;;;;;5083576;28;20453;-88
2022/10/26 00:18:45;;;;;;;8.43;6.77;;;14.20;99.90;;;;;;5081730;28;20437;-88
2022/10/26 00:21:12;;;;;;;12.30;6.20;;;14.20;99.90;;;;;;5072173;28;20443;-88
2022/10/26 00:23:40;;;;;;;11.77;6.50;;;14.20;99.90;;;;;;5079266;28;20466;-88
2022/10/26 00:26:08;;;;;;;8.37;6.60;;;14.20;99.90;;;;;;5103912;27;20455;-88
2022/10/26 00:28:35;;;;;;;9.30;5.90;;;14.20;99.90;;;;;;5106204;28;20433;-88
2022/10/26 00:31:03;;;;;;;8.00;5.77;;;14.20;99.90;;;;;;5078472;28;20490;-88
2022/10/26 00:33:31;;;;;;;7.07;5.13;;;14.20;99.90;;;;;;5079268;28;20461;-88
2022/10/26 00:35:58;;;;;;;8.27;5.40;;;14.20;99.90;;;;;;5071127;28;20457;-88
2022/10/26 00:38:24;;;;;;;8.73;6.07;;;14.20;99.90;;;;;;5085473;28;20444;-89
2022/10/26 00:40:52;;;;;;;11.90;6.80;;;14.20;99.90;;;;;;5077744;28;20442;-89
2022/10/26 00:43:35;;;;;;;9.63;6.83;;;14.20;99.90;;;;;;5077863;28;20465;-88
2022/10/26 00:46:05;;;;;;;16.07;7.63;;;14.20;99.90;;;;;;5067276;28;20452;-88
2022/10/26 00:48:35;;;;;;;10.80;5.70;;;14.20;99.90;;;;;;5096785;27;20483;-88
2022/10/26 00:51:06;;;;;;;11.13;6.70;;;14.30;99.90;;;;;;5087565;28;20493;-88
2022/10/26 00:53:33;;;;;;;11.50;6.40;;;14.30;99.90;;;;;;5083024;28;20545;-87
2022/10/26 00:56:02;;;;;;;12.90;6.70;;;14.30;99.90;;;;;;5094661;28;20424;-87
2022/10/26 00:58:30;;;;;;;11.37;6.73;;;14.30;99.90;;;;;;5079652;27;20460;-88
2022/10/26 01:00:57;;;;;;;11.73;7.60;;;14.30;99.90;;;;;;5101445;27;20439;-87
2022/10/26 01:03:24;;;;;;;14.70;6.93;;;14.30;99.90;;;;;;5090778;28;20454;-88
2022/10/26 01:05:55;;;;;;;11.63;8.60;;;14.30;99.90;;;;;;5096074;28;20438;-87
2022/10/26 01:08:22;;;;;;;12.50;7.73;;;14.30;99.90;;;;;;5080129;28;20442;-88
2022/10/26 01:10:49;;;;;;;12.33;7.37;;;14.40;99.90;;;;;;5082273;28;20479;-88
2022/10/26 01:13:18;;;;;;;9.07;7.40;;;14.40;99.90;;;;;;5073461;28;20469;-88
2022/10/26 01:15:51;;;;;;;11.73;7.37;;;14.40;99.90;;;;;;5072242;28;20459;-88
2022/10/26 01:18:27;;;;;;;7.80;6.80;;;14.50;99.90;;;;;;5095698;28;20403;-86
2022/10/26 01:21:37;;;;;;;9.93;6.87;;;14.40;99.90;;;;;;5111129;27;20489;-86
2022/10/26 01:24:27;;;;;;;11.60;7.63;;;14.40;99.90;;;;;;5005520;28;20459;-87
2022/10/26 01:27:07;;;;;;;9.77;8.13;;;14.30;99.90;;;;;;5003773;28;20440;-85
2022/10/26 01:30:17;;;;;;;8.47;6.50;;;14.30;99.90;;;;;;5065202;28;20592;-87
2022/10/26 01:32:52;;;;;;;12.60;8.30;;;14.30;99.90;;;;;;5021312;28;20431;-86
2022/10/26 01:35:26;;;;;;;15.10;8.30;;;14.20;99.90;;;;;;5023741;28;20427;-87
2022/10/26 01:37:59;;;;;;;10.83;7.87;;;14.10;99.90;;;;;;5074404;27;20421;-86
2022/10/26 01:40:34;;;;;;;10.83;7.43;;;14.10;99.90;;;;;;5098201;27;20438;-85
2022/10/26 01:43:05;;;;;;;10.70;6.63;;;14.10;99.90;;;;;;5092839;27;20542;-88
2022/10/26 01:45:34;;;;;;;11.23;6.80;;;14.10;99.90;;;;;;5073788;28;20431;-87
2022/10/26 01:48:03;;;;;;;7.70;6.90;;;14.10;99.90;;;;;;5071598;28;20628;-88
2022/10/26 01:50:30;;;;;;;12.70;6.10;;;14.10;99.90;;;;;;5078439;28;20551;-87
2022/10/26 01:52:57;;;;;;;8.23;5.47;;;14.20;99.90;;;;;;5087670;28;20441;-88
2022/10/26 01:55:44;;;;;;;6.13;5.57;;;14.20;99.90;;;;;;5076166;28;20436;-89
2022/10/26 01:58:29;;;;;;;10.03;7.10;;;14.20;99.90;;;;;;5097301;27;20430;-86
2022/10/26 02:01:02;;;;;;;8.53;5.60;;;14.10;99.90;;;;;;5097598;27;20445;-88
2022/10/26 02:03:36;;;;;;;9.67;6.67;;;14.10;99.90;;;;;;5075217;28;20463;-87
2022/10/26 02:06:10;;;;;;;7.90;6.17;;;14.00;99.90;;;;;;5079994;28;20439;-87
2022/10/26 02:08:57;;;;;;;19.00;6.93;;;13.90;99.90;;;;;;5073157;28;20435;-87
2022/10/26 02:11:36;;;;;;;7.23;5.90;;;13.90;99.90;;;;;;5074938;28;20480;-87
2022/10/26 02:14:12;;;;;;;10.93;6.27;;;13.90;99.90;;;;;;5078667;28;20466;-86
2022/10/26 02:16:49;;;;;;;11.37;6.80;;;13.90;99.90;;;;;;5073072;28;20435;-88
2022/10/26 02:19:26;;;;;;;9.20;7.43;;;13.80;99.90;;;;;;5066590;28;20444;-88
2022/10/26 02:22:05;;;;;;;11.03;7.80;;;13.70;99.90;;;;;;5093383;28;20435;-88
2022/10/26 02:24:34;;;;;;;10.00;8.40;;;13.60;99.90;;;;;;5080559;28;20462;-88
2022/10/26 02:27:04;;;;;;;12.40;9.00;;;13.60;99.90;;;;;;5077382;28;20441;-88
2022/10/26 02:29:33;;;;;;;9.80;8.60;;;13.50;99.90;;;;;;5076789;28;20445;-87
2022/10/26 02:32:03;;;;;;;13.80;9.60;;;13.50;99.90;;;;;;5074510;28;20840;-88
2022/10/26 02:34:31;;;;;;;18.20;9.00;;;13.60;99.90;;;;;;5067701;28;20460;-88
2022/10/26 02:37:02;;;;;;;13.43;9.60;;;13.60;99.90;;;;;;5082150;28;20455;-87
2022/10/26 02:39:31;;;;;;;10.97;8.73;;;13.60;99.90;;;;;;5072309;28;20440;-88
2022/10/26 02:42:01;;;;;;;16.00;9.10;;;13.70;99.90;;;;;;5073617;28;20448;-88
2022/10/26 02:44:31;;;;;;;19.30;9.07;;;13.70;99.90;;;;;;5076503;28;20508;-88
2022/10/26 02:46:59;;;;;;;8.30;7.53;;;13.70;99.90;;;;;;5090003;28;20528;-88
2022/10/26 02:49:28;;;;;;;8.90;8.00;;;13.70;99.90;;;;;;5093362;28;20435;-87
2022/10/26 02:52:01;;;;;;;10.73;7.60;;;13.70;99.90;;;;;;5088243;28;20468;-86
2022/10/26 02:54:33;;;;;;;8.37;7.20;;;13.70;99.90;;;;;;5080868;28;20713;-88
2022/10/26 02:57:01;;;;;;;10.80;6.30;;;13.70;99.90;;;;;;5075730;28;20491;-87
2022/10/26 02:59:33;;;;;;;11.27;6.40;;;13.70;99.90;;;;;;5070402;28;20520;-88
2022/10/26 03:02:01;;;;;;;9.57;6.80;;;13.70;99.90;;;;;;5093426;28;20525;-88
2022/10/26 03:04:30;;;;;;;9.90;6.80;;;13.70;99.90;;;;;;5099668;28;20453;-88
2022/10/26 03:06:57;;;;;;;11.57;6.80;;;13.60;99.90;;;;;;5076764;28;20450;-88
2022/10/26 03:09:25;;;;;;;12.30;7.23;;;13.60;99.90;;;;;;5074217;28;20436;-87
2022/10/26 03:11:52;;;;;;;11.43;7.60;;;13.60;99.90;;;;;;5077242;28;20547;-88
2022/10/26 03:14:18;;;;;;;10.90;7.23;;;13.60;99.90;;;;;;5075066;28;20550;-87
2022/10/26 03:16:45;;;;;;;8.60;7.50;;;13.60;99.90;;;;;;5076199;28;20446;-87
2022/10/26 03:19:12;;;;;;;9.40;7.33;;;13.60;99.90;;;;;;5082045;28;20427;-87
2022/10/26 03:21:41;;;;;;;9.90;7.40;;;13.60;99.90;;;;;;5092179;28;20509;-88
2022/10/26 03:24:08;;;;;;;12.60;7.30;;;13.70;99.90;;;;;;5079342;28;20499;-87
2022/10/26 03:26:35;;;;;;;13.77;8.17;;;13.70;99.90;;;;;;5085938;28;20815;-88
2022/10/26 03:29:01;;;;;;;12.67;8.50;;;13.70;99.90;;;;;;5104465;28;20430;-87
2022/10/26 03:31:28;;;;;;;9.50;6.87;;;13.80;99.90;;;;;;5098465;28;20472;-87
2022/10/26 03:33:55;;;;;;;14.77;9.17;;;13.80;99.90;;;;;;5077370;28;20470;-88
2022/10/26 03:36:22;;;;;;;9.83;7.60;;;13.80;99.90;;;;;;5073548;28;20450;-88
2022/10/26 03:38:50;;;;;;;12.23;8.20;;;13.80;99.90;;;;;;5074214;28;20472;-87
2022/10/26 03:41:17;;;;;;;11.23;7.30;;;13.80;99.90;;;;;;5071952;28;20452;-88
2022/10/26 03:43:43;;;;;;;13.90;8.10;;;13.90;99.90;;;;;;5086031;28;20455;-87
2022/10/26 03:46:10;;;;;;;9.63;7.17;;;13.90;99.90;;;;;;5080661;28;20833;-87
2022/10/26 03:48:37;;;;;;;10.73;7.30;;;13.80;99.90;;;;;;5078555;28;20431;-85
2022/10/26 03:51:04;;;;;;;8.57;7.10;;;13.80;99.90;;;;;;5104769;28;20475;-87
2022/10/26 03:53:30;;;;;;;13.63;7.70;;;13.80;99.90;;;;;;5078617;28;20558;-87
2022/10/26 03:55:58;;;;;;;9.37;7.60;;;13.80;99.90;;;;;;5087451;28;20435;-86
2022/10/26 03:58:25;;;;;;;16.27;9.80;;;13.80;99.90;;;;;;5079463;28;20441;-87
2022/10/26 04:00:52;;;;;;;14.27;8.83;;;13.90;99.90;;;;;;5071217;28;20435;-86
2022/10/26 04:03:19;;;;;;;9.80;8.67;;;13.80;99.90;;;;;;5087695;28;21005;-87
2022/10/26 04:05:45;;;;;;;9.43;7.57;;;13.90;99.90;;;;;;5098870;28;20427;-88
2022/10/26 04:08:12;;;;;;;7.90;7.10;;;13.90;99.90;;;;;;5089750;28;21275;-88
2022/10/26 04:10:39;;;;;;;8.60;6.53;;;13.90;99.90;;;;;;5075180;28;20439;-87
2022/10/26 04:13:08;;;;;;;8.90;5.60;;;14.00;99.90;;;;;;5087175;28;20973;-88
2022/10/26 04:15:35;;;;;;;8.87;5.27;;;14.00;99.90;;;;;;5075673;28;20437;-88
2022/10/26 04:18:03;;;;;;;6.17;4.60;;;14.10;99.90;;;;;;5076060;28;20815;-89
2022/10/26 04:20:32;;;;;;;5.43;4.93;;;14.10;99.90;;;;;;5075430;28;20450;-88
2022/10/26 04:23:00;;;;;;;8.40;5.17;;;14.20;99.90;;;;;;5077184;28;20461;-88
2022/10/26 04:25:27;;;;;;;20.00;6.50;;;14.20;99.90;;;;;;5079899;28;20435;-88
2022/10/26 04:27:54;;;;;;;11.07;5.63;;;14.30;99.90;;;;;;5076345;28;20956;-88
2022/10/26 04:30:23;;;;;;;7.83;5.63;;;14.30;99.90;;;;;;5077075;28;20433;-88
2022/10/26 04:32:49;;;;;;;7.50;6.57;;;14.30;99.90;;;;;;5075134;28;20507;-87
2022/10/26 04:35:16;;;;;;;8.33;5.60;;;14.40;99.90;;;;;;5077463;28;20942;-87
2022/10/26 04:37:43;;;;;;;10.00;6.83;;;14.40;99.90;;;;;;5084721;28;20439;-87
2022/10/26 04:40:10;;;;;;;8.37;5.60;;;14.40;99.90;;;;;;5073082;28;20433;-88
2022/10/26 04:42:41;;;;;;;12.53;6.80;;;14.30;99.90;;;;;;5074938;28;21189;-88
2022/10/26 04:45:09;;;;;;;6.13;5.43;;;14.30;99.90;;;;;;5077393;28;20443;-88
2022/10/26 04:47:37;;;;;;;9.47;5.80;;;14.20;99.90;;;;;;5077455;28;20474;-87
2022/10/26 04:50:05;;;;;;;10.83;5.30;;;14.20;99.90;;;;;;5081149;28;20453;-87
2022/10/26 04:52:32;;;;;;;12.50;5.53;;;14.10;99.90;;;;;;5072179;28;20479;-87
2022/10/26 04:54:59;;;;;;;8.00;5.73;;;14.10;99.90;;;;;;5084552;28;20455;-88
2022/10/26 04:57:28;;;;;;;6.67;5.53;;;14.10;99.90;;;;;;5097633;28;20444;-87
2022/10/26 04:59:55;;;;;;;8.80;6.40;;;14.10;99.90;;;;;;5099005;28;20460;-87
2022/10/26 05:02:21;;;;;;;8.03;6.67;;;14.10;99.90;;;;;;5078577;28;20965;-88
2022/10/26 05:04:50;;;;;;;8.97;6.40;;;14.10;99.90;;;;;;5075684;28;20468;-87
2022/10/26 05:07:16;;;;;;;13.73;5.80;;;14.10;99.90;;;;;;5076555;28;20431;-88
2022/10/26 05:09:43;;;;;;;8.87;5.70;;;14.10;99.90;;;;;;5086057;28;20423;-88
2022/10/26 05:12:10;;;;;;;11.30;9.03;;;14.10;99.90;;;;;;5102576;28;20549;-88
2022/10/26 05:14:37;;;;;;;8.97;6.20;;;14.10;99.90;;;;;;5073170;28;20498;-88
2022/10/26 05:17:03;;;;;;;11.27;6.80;;;14.10;99.90;;;;;;5080842;28;20436;-89
2022/10/26 05:19:30;;;;;;;13.27;6.10;;;14.10;99.90;;;;;;5075008;28;20447;-88
2022/10/26 05:21:58;;;;;;;9.70;7.20;;;14.10;99.90;;;;;;5084837;28;20534;-88
2022/10/26 05:24:25;;;;;;;7.93;7.10;;;14.10;99.90;;;;;;5078595;28;20461;-88
2022/10/26 05:26:52;;;;;;;9.03;7.97;;;14.10;99.90;;;;;;5099846;28;20491;-87
2022/10/26 05:29:18;;;;;;;9.40;7.07;;;14.10;99.90;;;;;;5090705;28;20431;-87
2022/10/26 05:31:45;;;;;;;12.53;7.90;;;14.10;99.90;;;;;;5079957;28;20472;-89
2022/10/26 05:34:12;;;;;;;16.20;7.87;;;14.20;99.90;;;;;;5088309;28;20459;-88
2022/10/26 05:36:39;;;;;;;8.83;7.67;;;14.10;99.90;;;;;;5078922;28;20444;-88
2022/10/26 05:39:07;;;;;;;8.47;7.67;;;14.10;99.90;;;;;;5073427;28;20443;-88
2022/10/26 05:41:34;;;;;;;12.63;7.70;;;14.20;99.90;;;;;;5084519;28;20438;-88
2022/10/26 05:44:01;;;;;;;9.33;6.80;;;14.20;99.90;;;;;;5084233;28;20463;-88
2022/10/26 05:46:27;;;;;;;12.53;7.40;;;14.20;99.90;;;;;;5072254;28;20511;-89
2022/10/26 05:48:54;;;;;;;10.87;8.00;;;14.20;99.90;;;;;;5075603;28;20452;-88
2022/10/26 05:51:21;;;;;;;15.33;7.47;;;14.30;99.90;;;;;;5075572;28;20476;-88
2022/10/26 05:53:48;;;;;;;10.93;7.33;;;14.30;99.90;;;;;;5080644;28;20462;-88
2022/10/26 05:56:20;;;;;;;10.73;7.80;;;14.30;99.90;;;;;;5074411;28;20930;-88
2022/10/26 05:58:48;;;;;;;11.33;8.63;;;14.30;99.90;;;;;;5075675;28;20437;-88
2022/10/26 06:01:27;;;;;;;12.87;8.80;;;14.30;99.90;;;;;;5072703;28;20448;-88
2022/10/26 06:04:11;;;;;;;13.80;9.40;;;14.40;99.90;;;;;;5095951;27;20459;-89
2022/10/26 06:06:42;;;;;;;17.13;8.77;;;14.40;99.90;;;;;;5100847;27;20451;-89
2022/10/26 06:09:11;;;;;;;11.67;9.20;;;14.40;99.90;;;;;;5093380;27;20804;-89
2022/10/26 06:11:40;;;;;;;12.43;7.33;;;14.50;99.90;;;;;;5067247;28;20495;-89
2022/10/26 06:14:08;;;;;;;16.37;8.17;;;14.50;99.90;;;;;;5081006;28;20538;-89
2022/10/26 06:16:47;;;;;;;12.70;8.23;;;14.50;99.90;;;;;;5072295;28;20589;-88
2022/10/26 06:19:24;;;;;;;12.20;7.40;;;14.60;99.90;;;;;;5077260;28;20428;-88
2022/10/26 06:22:03;;;;;;;17.93;9.10;;;14.60;99.90;;;;;;5104025;28;20419;-87
2022/10/26 06:24:38;;;;;;;11.87;9.47;;;14.60;99.90;;;;;;5100435;27;20538;-87
2022/10/26 06:27:16;;;;;;;17.33;10.47;;;14.60;99.90;;;;;;5081264;28;20466;-87
2022/10/26 06:29:50;;;;;;;14.00;8.97;;;14.60;99.90;;;;;;5073194;28;20583;-87
2022/10/26 06:32:17;;;;;;;13.03;9.03;;;14.60;99.90;;;;;;5078012;28;20917;-88
2022/10/26 06:34:48;;;;;;;16.40;8.43;;;14.60;99.90;;;;;;5069728;28;20501;-88
2022/10/26 06:37:18;;;;;;;12.37;8.70;;;14.60;99.90;;;;;;5072443;28;20446;-87
2022/10/26 06:40:03;;;;;;;;;;;;;;;;;;;;;
2022/10/26 06:42:47;;;;;;;8.27;7.07;;;14.70;99.90;;;;;;5074645;28;20964;-88
2022/10/26 06:45:20;;;;;;;14.63;8.07;;;14.70;99.90;;;;;;5083605;28;20496;-89
2022/10/26 06:47:57;;;;;;;9.97;6.90;;;14.70;99.90;;;;;;5077548;28;20440;-89
2022/10/26 06:51:15;;;;;;;11.67;7.00;;;14.80;99.90;;;;;;5077166;28;20441;-89
2022/10/26 06:56:39;;;;;;;;;;;;;;;;;;;;;
2022/10/26 06:59:27;;;;;;;9.10;6.03;;;14.80;99.90;;;;;;5079123;28;20966;-89
2022/10/26 07:01:56;;;;;;;9.00;5.40;;;14.90;99.90;;;;;;5077787;28;20458;-89
2022/10/26 07:04:43;;;;;;;9.20;5.27;;;14.90;99.90;;;;;;5082704;28;20461;-88
2022/10/26 07:07:26;;;;;;;7.50;5.50;;;14.90;99.90;;;;;;5075355;28;21121;-88
2022/10/26 07:09:53;;;;;;;8.07;5.20;;;15.00;99.90;;;;;;5116824;22;20589;-82
2022/10/26 07:12:27;;;;;;;9.60;4.80;;;15.00;99.90;;;;;;5080306;28;20476;-82
2022/10/26 07:14:55;;;;;;;10.77;5.07;;;15.00;99.90;;;;;;5093298;28;20447;-83
2022/10/26 07:17:22;;;;;;;6.60;4.40;;;15.00;99.90;;;;;;5095663;28;20815;-82
2022/10/26 07:19:49;;;;;;;8.20;5.63;;;15.10;99.90;;;;;;5070908;28;20460;-81
2022/10/26 07:22:16;;;;;;;6.03;5.30;;;15.20;99.90;;;;;;5055154;28;20433;-82
2022/10/26 07:24:42;;;;;;;6.73;5.10;;;15.30;99.90;;;;;;5057652;28;20660;-83
2022/10/26 07:27:09;;;;;;;8.70;5.20;;;15.30;99.90;;;;;;5061022;28;20443;-83
2022/10/26 07:29:36;;;;;;;7.07;5.53;;;15.40;99.90;;;;;;5077179;28;20467;-84
2022/10/26 07:32:04;;;;;;;18.50;7.33;;;15.40;99.90;;;;;;5076517;28;20486;-82
2022/10/26 07:34:31;;;;;;;9.90;6.83;;;15.40;99.90;;;;;;5089848;28;20439;-82
2022/10/26 07:36:59;;;;;;;7.17;6.13;;;15.40;99.90;;;;;;5090485;28;20538;-87
2022/10/26 07:39:26;;;;;;;10.93;6.90;;;15.40;99.90;;;;;;5091509;28;20485;-85
2022/10/26 07:41:53;;;;;;;12.10;6.97;;;15.40;99.90;;;;;;5084979;28;20531;-83
2022/10/26 07:44:20;;;;;;;9.57;6.10;;;15.40;99.90;;;;;;5070874;28;20449;-83
2022/10/26 07:46:47;;;;;;;7.97;6.23;;;15.50;99.90;;;;;;5080114;28;20445;-84
2022/10/26 07:49:15;;;;;;;12.27;7.40;;;15.50;99.90;;;;;;5071943;28;20464;-85
2022/10/26 07:51:42;;;;;;;11.73;7.10;;;15.60;99.90;;;;;;5069792;28;20440;-85
2022/10/26 07:54:08;;;;;;;11.60;7.10;;;15.70;99.90;;;;;;5069208;28;20447;-83
2022/10/26 07:56:35;;;;;;;13.73;5.50;;;15.70;99.90;;;;;;5071864;28;20462;-81
2022/10/26 07:59:02;;;;;;;5.07;4.57;;;15.80;99.90;;;;;;5070662;28;20461;-82
2022/10/26 08:01:29;;;;;;;6.43;3.90;;;15.90;99.90;;;;;;5067252;28;20453;-84
2022/10/26 08:03:56;;;;;;;6.87;3.50;;;16.10;99.90;;;;;;5068780;28;20437;-84
2022/10/26 08:06:24;;;;;;;6.73;3.40;;;16.30;99.90;;;;;;5079109;28;20461;-83
2022/10/26 08:08:52;;;;;;;4.60;3.40;;;16.50;99.90;;;;;;5073493;28;20471;-84
2022/10/26 08:11:19;;;;;;;13.00;3.80;;;16.60;99.90;;;;;;5084479;28;20441;-82
2022/10/26 08:13:45;;;;;;;3.17;2.67;;;16.70;99.90;;;;;;5088253;28;20476;-84
2022/10/26 08:16:13;;;;;;;6.70;3.53;;;16.80;99.90;;;;;;5075741;28;20945;-84
2022/10/26 08:18:39;;;;;;;5.37;3.33;;;16.90;99.90;;;;;;5084849;28;20523;-83
2022/10/26 08:21:09;;;;;;;6.50;3.20;;;17.00;99.90;;;;;;5088232;28;20429;-84
2022/10/26 08:23:37;;;;;;;3.93;2.70;;;17.10;99.90;;;;;;5075041;28;20439;-84
2022/10/26 08:26:04;;;;;;;5.00;2.90;;;17.20;99.90;;;;;;5074883;28;20419;-84
2022/10/26 08:28:31;;;;;;;5.43;2.50;;;17.20;99.90;;;;;;5088468;28;20440;-83
2022/10/26 08:30:58;;;;;;;4.77;3.30;;;17.30;99.90;;;;;;5078311;28;20510;-86
2022/10/26 08:33:25;;;;;;;3.67;3.13;;;17.30;99.90;;;;;;5069166;28;20480;-84
2022/10/26 08:35:56;;;;;;;4.60;2.80;;;17.40;99.90;;;;;;5064567;28;20961;-85
2022/10/26 08:38:23;;;;;;;4.67;2.67;;;17.50;99.90;;;;;;5057904;28;20806;-85
2022/10/26 08:40:52;;;;;;;6.03;2.70;;;17.50;99.90;;;;;;5069786;28;20428;-85
2022/10/26 08:43:23;;;;;;;5.30;3.00;;;17.60;99.90;;;;;;5079763;28;20455;-84
2022/10/26 08:45:53;;;;;;;11.17;4.93;;;17.70;99.90;;;;;;5076083;28;20612;-84
2022/10/26 08:48:24;;;;;;;9.27;4.83;;;17.70;99.90;;;;;;5058719;28;20483;-85
2022/10/26 08:50:54;;;;;;;10.80;6.20;;;17.80;99.90;;;;;;5057237;28;20789;-85
2022/10/26 08:53:27;;;;;;;7.30;4.83;;;17.70;99.90;;;;;;5056629;28;20542;-85
2022/10/26 08:55:59;;;;;;;6.70;4.50;;;17.60;99.90;;;;;;5056174;28;20451;-85
2022/10/26 08:58:29;;;;;;;8.90;4.37;;;17.40;99.90;;;;;;5061622;28;20807;-85
2022/10/26 09:00:56;;;;;;;9.03;4.20;;;17.40;99.90;;;;;;5061032;28;20445;-85
2022/10/26 09:03:24;;;;;;;4.50;3.53;;;17.30;99.90;;;;;;5066278;28;20597;-85
2022/10/26 09:06:11;;;;;;;7.77;4.53;;;17.50;99.90;;;;;;5058534;28;20458;-85
2022/10/26 09:08:49;;;;;;;7.80;4.73;;;17.50;99.90;;;;;;5056096;28;20480;-85
2022/10/26 09:11:25;;;;;;;13.07;7.30;;;17.70;99.90;;;;;;5058305;28;20456;-86
2022/10/26 09:14:01;;;;;;;7.70;5.30;;;17.80;99.90;;;;;;5059101;28;20489;-85
2022/10/26 09:16:33;;;;;;;14.50;6.17;;;18.00;99.90;;;;;;5057585;28;20448;-85
2022/10/26 09:19:31;;;;;;;8.63;7.27;;;18.40;99.90;;;;;;5059072;28;20469;-85
2022/10/26 09:22:06;;;;;;;8.43;6.10;;;18.70;99.90;;;;;;5058296;28;20445;-85
2022/10/26 09:24:34;;;;;;;7.80;5.53;;;19.10;99.90;;;;;;5058328;28;20451;-86
2022/10/26 09:27:11;;;;;;;7.03;5.80;;;19.50;99.90;;;;;;5055909;28;20956;-85
2022/10/26 09:29:41;;;;;;;8.90;6.40;;;19.80;99.90;;;;;;5056408;28;20468;-85
2022/10/26 09:32:15;;;;;;;10.17;5.00;;;19.90;99.90;;;;;;5055462;28;20445;-85
2022/10/26 09:34:47;;;;;;;9.07;5.90;;;20.10;99.90;;;;;;5054408;28;20440;-86
2022/10/26 09:37:18;;;;;;;7.67;5.20;;;20.20;99.90;;;;;;5058788;28;20440;-86
2022/10/26 09:39:54;;;;;;;9.83;4.80;;;20.40;99.90;;;;;;5072143;28;20793;-86
2022/10/26 09:42:28;;;;;;;11.07;4.53;;;21.40;99.90;;;;;;5077955;28;20553;-86
2022/10/26 09:44:58;;;;;;;10.83;4.23;;;23.40;99.90;;;;;;5082138;28;20980;-84
2022/10/26 09:47:34;;;;;;;8.10;4.37;;;24.30;99.90;;;;;;5082377;28;20444;-85
2022/10/26 09:50:07;;;;;;;11.83;5.00;;;24.20;99.30;;;;;;5080342;28;20503;-87
2022/10/26 09:52:34;;;;;;;10.30;5.33;;;23.40;99.90;;;;;;5079459;28;20853;-90
2022/10/26 09:55:00;;;;;;;7.30;4.07;;;23.00;99.90;;;;;;5082746;28;20458;-85
2022/10/26 09:57:29;;;;;;;15.40;4.20;;;22.70;99.90;;;;;;5080545;28;20464;-85
2022/10/26 09:59:57;;;;;;;5.50;3.20;;;22.90;99.90;;;;;;5081134;28;20829;-86
2022/10/26 10:02:38;;;;;;;9.50;4.20;;;23.40;99.00;;;;;;5080723;28;20447;-86
2022/10/26 10:05:21;;;;;;;9.50;3.50;;;24.10;98.30;;;;;;5078080;28;20460;-85
2022/10/26 10:07:48;;;;;;;7.60;3.73;;;24.40;96.70;;;;;;5078425;28;20881;-88
2022/10/26 10:10:17;;;;;;;5.27;3.70;;;24.20;96.20;;;;;;5077477;28;20484;-86
2022/10/26 10:12:49;;;;;;;8.13;3.87;;;23.70;96.90;;;;;;5061084;28;20493;-87
2022/10/26 10:15:18;;;;;;;8.27;3.57;;;23.20;97.20;;;;;;5062302;28;20449;-86
2022/10/26 10:17:49;;;;;;;7.50;3.23;;;22.80;98.20;;;;;;5068000;28;20445;-86
2022/10/26 10:20:21;;;;;;;7.43;2.90;;;22.60;99.10;;;;;;5083045;28;20440;-86
2022/10/26 10:22:56;;;;;;;9.40;7.37;;;22.40;99.10;;;;;;5075654;28;20482;-86
2022/10/26 10:25:31;;;;;;;16.00;3.40;;;22.20;99.30;;;;;;5077430;28;20579;-86
2022/10/26 10:28:00;;;;;;;6.17;3.63;;;22.20;99.90;;;;;;5078550;28;20440;-87
2022/10/26 10:30:30;;;;;;;12.20;3.90;;;22.30;99.90;;;;;;5073814;28;20521;-85
2022/10/26 10:33:06;;;;;;;4.87;3.90;;;22.50;99.90;;;;;;5072381;28;20480;-86
2022/10/26 10:35:33;;;;;;;6.93;3.63;;;23.40;99.70;;;;;;5083184;28;20420;-85
2022/10/26 10:38:00;;;;;;;4.77;2.60;;;23.90;97.10;;;;;;5085372;28;20501;-85
2022/10/26 10:40:30;;;;;;;5.37;3.07;;;23.60;96.50;;;;;;5087834;28;20532;-85
2022/10/26 10:43:06;;;;;;;5.37;3.37;;;23.30;97.00;;;;;;5084769;28;20448;-86
2022/10/26 10:45:34;;;;;;;8.53;3.57;;;23.20;97.70;;;;;;5072123;28;20806;-86
2022/10/26 10:48:04;;;;;;;6.63;2.70;;;22.80;97.80;;;;;;5070646;28;20531;-85
2022/10/26 10:50:32;;;;;;;7.17;3.00;;;22.50;98.70;;;;;;5065463;28;20516;-86
2022/10/26 10:53:18;;;;;;;6.23;3.00;;;22.40;99.10;;;;;;5077062;28;20455;-85
2022/10/26 10:56:09;;;;;;;7.37;3.30;;;22.60;98.90;;;;;;5079849;28;20437;-85
2022/10/26 10:58:47;;;;;;;7.83;3.57;;;22.80;97.60;;;;;;5079839;28;20552;-85
2022/10/26 11:01:16;;;;;;;5.00;3.17;;;22.90;97.80;;;;;;5089505;28;20497;-85
2022/10/26 11:03:51;;;;;;;5.70;2.80;;;22.80;98.20;;;;;;5087093;28;20417;-83
2022/10/26 11:06:21;;;;;;;7.10;3.50;;;22.90;98.40;;;;;;5084716;28;20468;-84
2022/10/26 11:08:53;;;;;;;8.70;3.23;;;22.80;98.30;;;;;;5079571;28;20503;-85
2022/10/26 11:11:23;;;;;;;6.50;3.30;;;23.20;98.20;;;;;;5076610;28;20437;-85
2022/10/26 11:13:56;;;;;;;9.40;4.03;;;24.50;97.30;;;;;;5073950;28;20481;-84
2022/10/26 11:16:28;;;;;;;4.90;3.33;;;25.90;94.50;;;;;;5069259;28;20430;-85
2022/10/26 11:18:59;;;;;;;6.47;2.93;;;26.60;92.60;;;;;;5067082;28;20475;-85
2022/10/26 11:21:28;;;;;;;6.80;2.80;;;27.30;91.90;;;;;;5081215;28;20436;-87
2022/10/26 11:24:10;;;;;;;6.53;2.53;;;28.20;90.10;;;;;;5080619;28;20429;-85
2022/10/26 11:26:42;;;;;;;10.93;3.67;;;27.70;89.30;;;;;;5076902;28;20445;-87
2022/10/26 11:29:23;;;;;;;6.00;2.57;;;26.90;90.50;;;;;;5068549;28;20495;-86
2022/10/26 11:31:57;;;;;;;5.10;2.97;;;26.30;91.20;;;;;;5071174;28;20532;-86
2022/10/26 11:34:30;;;;;;;6.77;3.50;;;26.00;91.40;;;;;;5071139;28;20472;-86
2022/10/26 11:37:03;;;;;;;5.20;3.67;;;26.40;91.40;;;;;;5072446;28;20453;-86
2022/10/26 11:39:38;;;;;;;6.77;3.40;;;26.90;90.00;;;;;;5070587;28;20465;-86
2022/10/26 11:42:14;;;;;;;9.80;4.90;;;27.10;88.70;;;;;;5073164;28;20491;-87
2022/10/26 11:44:48;;;;;;;7.90;4.80;;;27.50;88.00;;;;;;5075527;28;20429;-86
2022/10/26 11:47:19;;;;;;;10.80;5.90;;;27.70;86.60;;;;;;5075145;28;20458;-87
2022/10/26 11:49:50;;;;;;;6.47;4.40;;;27.60;86.80;;;;;;5072374;28;20458;-87
2022/10/26 11:52:22;;;;;;;6.10;4.70;;;27.40;87.20;;;;;;5074609;28;20530;-86
2022/10/26 11:54:53;;;;;;;6.40;4.67;;;27.10;86.20;;;;;;5085822;28;20484;-85
2022/10/26 11:57:22;;;;;;;7.73;4.80;;;26.80;87.00;;;;;;5087578;28;20547;-84
2022/10/26 11:59:55;;;;;;;7.53;5.50;;;26.30;89.00;;;;;;5083970;28;20534;-85
2022/10/26 12:02:24;;;;;;;8.97;4.40;;;26.50;89.90;;;;;;5071153;28;20444;-87
2022/10/26 12:04:55;;;;;;;8.77;4.13;;;26.80;89.80;;;;;;5070727;28;20445;-87
2022/10/26 12:07:27;;;;;;;8.73;3.83;;;27.00;87.90;;;;;;5067789;28;20447;-85
2022/10/26 12:09:55;;;;;;;5.97;2.90;;;27.10;86.70;;;;;;5069451;28;20479;-85
2022/10/26 12:12:28;;;;;;;6.30;3.20;;;26.90;87.10;;;;;;5069404;28;20440;-87
2022/10/26 12:15:06;;;;;;;6.40;2.70;;;26.70;87.80;;;;;;5069744;28;20485;-84
2022/10/26 12:17:38;;;;;;;5.23;3.30;;;26.00;88.20;;;;;;5058765;28;20448;-84
2022/10/26 12:20:24;;;;;;;5.83;2.70;;;25.80;89.80;;;;;;5057673;28;20465;-84
2022/10/26 12:22:51;;;;;;;4.37;2.70;;;25.70;90.20;;;;;;5070070;28;20471;-85
2022/10/26 12:25:20;;;;;;;4.57;3.60;;;25.80;90.90;;;;;;5067910;28;20438;-85
2022/10/26 12:27:53;;;;;;;7.00;3.70;;;25.80;90.70;;;;;;5057196;28;20450;-85
2022/10/26 12:30:26;;;;;;;6.43;4.27;;;26.00;90.30;;;;;;5057914;28;20461;-86
2022/10/26 12:32:55;;;;;;;6.20;4.00;;;26.40;90.30;;;;;;5062197;28;20502;-85
2022/10/26 12:35:43;;;;;;;6.30;4.30;;;26.50;88.80;;;;;;5058304;28;20495;-84
2022/10/26 12:38:47;;;;;;;9.77;4.30;;;26.40;88.90;;;;;;5055148;28;20952;-85
2022/10/26 12:41:24;;;;;;;5.27;4.63;;;26.30;88.20;;;;;;5055532;28;20457;-84
2022/10/26 12:43:58;;;;;;;6.63;4.17;;;26.10;88.90;;;;;;5057051;28;20451;-87
2022/10/26 12:46:42;;;;;;;8.43;2.87;;;25.90;90.10;;;;;;5057399;28;20801;-85
2022/10/26 12:49:55;;;;;;;5.73;3.60;;;25.60;90.90;;;;;;5060284;28;20457;-87
2022/10/26 12:52:28;;;;;;;5.57;2.67;;;25.40;91.20;;;;;;5077979;28;20429;-83
2022/10/26 12:55:30;;;;;;;5.10;2.50;;;25.30;90.80;;;;;;5073920;28;20488;-86
2022/10/26 12:58:21;;;;;;;5.43;2.37;;;24.80;91.30;;;;;;5061409;28;20457;-85
2022/10/26 13:01:08;;;;;;;3.70;2.10;;;24.50;92.40;;;;;;5057512;28;20471;-86
2022/10/26 13:03:46;;;;;;;6.70;2.73;;;24.50;92.30;;;;;;5057948;28;20527;-85
2022/10/26 13:06:33;;;;;;;9.70;2.90;;;24.70;91.60;;;;;;5072547;28;20434;-83
2022/10/26 13:11:37;;;;;;;8.27;2.93;;;25.00;91.40;;;;;;5097880;28;20529;-87
2022/10/26 13:14:07;;;;;;;5.73;3.10;;;25.10;91.20;;;;;;5094379;28;20497;-87